createdAt,value
2017-07-10T00:00:18.253Z,100557.78
2017-07-10T00:02:50.282Z,100550.58
2017-07-10T00:05:22.804Z,100549.13
2017-07-10T00:07:55.463Z,100547.92
2017-07-10T00:10:27.720Z,100544.23
2017-07-10T00:13:00.417Z,100534.36
2017-07-10T00:15:32.623Z,100533.00
2017-07-10T00:18:04.791Z,100533.25
2017-07-10T00:20:37.201Z,100536.91
2017-07-10T00:23:09.551Z,100530.70
2017-07-10T00:25:42.092Z,100538.30
2017-07-10T00:28:14.453Z,100542.55
2017-07-10T00:30:46.717Z,100544.51
2017-07-10T00:33:19.165Z,100546.65
2017-07-10T00:35:51.568Z,100545.37
2017-07-10T00:38:23.865Z,100540.69
2017-07-10T00:40:56.326Z,100538.80
2017-07-10T00:43:29.005Z,100534.18
2017-07-10T00:46:00.985Z,100530.30
2017-07-10T00:48:33.255Z,100535.01
2017-07-10T00:51:05.630Z,100542.79
2017-07-10T00:53:38.184Z,100542.91
2017-07-10T00:56:10.680Z,100535.91
2017-07-10T00:58:43.033Z,100526.78
2017-07-10T01:01:15.426Z,100526.69
2017-07-10T01:03:48.656Z,100521.05
2017-07-10T01:06:21.208Z,100512.45
2017-07-10T01:08:53.648Z,100516.14
2017-07-10T01:11:26.424Z,100515.19
2017-07-10T01:13:58.541Z,100514.94
2017-07-10T01:16:30.703Z,100512.02
2017-07-10T01:19:03.266Z,100512.03
2017-07-10T01:21:35.711Z,100509.08
2017-07-10T01:24:08.081Z,100500.22
2017-07-10T01:26:40.409Z,100493.30
2017-07-10T01:29:12.894Z,100484.34
2017-07-10T01:31:45.785Z,100483.47
2017-07-10T01:34:17.671Z,100482.78
2017-07-10T01:36:49.996Z,100483.03
2017-07-10T01:39:22.287Z,100478.78
2017-07-10T01:41:54.731Z,100474.25
2017-07-10T01:44:27.238Z,100472.80
2017-07-10T01:46:59.586Z,100469.23
2017-07-10T01:49:38.926Z,100470.53
2017-07-10T01:52:11.580Z,100467.50
2017-07-10T01:54:44.045Z,100467.81
2017-07-10T01:57:16.554Z,100464.59
2017-07-10T01:59:48.848Z,100467.56
2017-07-10T02:02:21.394Z,100467.66
2017-07-10T02:04:53.665Z,100465.17
2017-07-10T02:07:26.150Z,100467.47
2017-07-10T02:09:58.707Z,100464.36
2017-07-10T02:12:30.998Z,100457.63
2017-07-10T02:15:03.363Z,100458.31
2017-07-10T02:17:35.824Z,100450.59
2017-07-10T02:20:08.283Z,100451.63
2017-07-10T02:22:40.794Z,100445.92
2017-07-10T02:25:13.206Z,100444.65
2017-07-10T02:27:46.064Z,100439.47
2017-07-10T02:30:18.101Z,100442.45
2017-07-10T02:32:50.198Z,100440.84
2017-07-10T02:35:22.635Z,100438.05
2017-07-10T02:37:55.065Z,100437.95
2017-07-10T02:40:27.443Z,100437.45
2017-07-10T02:42:59.766Z,100441.58
2017-07-10T02:45:32.855Z,100443.89
2017-07-10T02:48:04.681Z,100440.66
2017-07-10T02:50:36.984Z,100438.09
2017-07-10T02:53:09.961Z,100441.41
2017-07-10T02:55:41.725Z,100444.30
2017-07-10T02:58:14.037Z,100436.80
2017-07-10T03:00:46.434Z,100436.97
2017-07-10T03:03:18.872Z,100437.20
2017-07-10T03:05:51.277Z,100440.86
2017-07-10T03:08:23.701Z,100436.50
2017-07-10T03:10:56.073Z,100433.57
2017-07-10T03:13:28.583Z,100428.03
2017-07-10T03:16:01.312Z,100427.81
2017-07-10T03:18:33.247Z,100430.55
2017-07-10T03:21:05.685Z,100423.48
2017-07-10T03:23:38.148Z,100424.94
2017-07-10T03:26:10.703Z,100424.75
2017-07-10T03:28:43.065Z,100409.13
2017-07-10T03:31:15.451Z,100402.45
2017-07-10T03:33:47.770Z,100394.89
2017-07-10T03:36:20.232Z,100399.14
2017-07-10T03:38:52.614Z,100391.82
2017-07-10T03:41:25.116Z,100387.64
2017-07-10T03:43:57.610Z,100380.81
2017-07-10T03:46:30.725Z,100388.22
2017-07-10T03:49:03.414Z,100386.27
2017-07-10T03:51:35.705Z,100380.00
2017-07-10T03:54:08.985Z,100370.64
2017-07-10T03:56:41.490Z,100366.94
2017-07-10T03:59:13.861Z,100370.88
2017-07-10T04:01:46.163Z,100372.64
2017-07-10T04:04:18.554Z,100377.45
2017-07-10T04:06:50.949Z,100383.06
2017-07-10T04:09:23.353Z,100387.34
2017-07-10T04:11:56.024Z,100387.16
2017-07-10T04:14:28.173Z,100401.30
2017-07-10T04:17:00.463Z,100406.84
2017-07-10T04:19:33.349Z,100405.88
2017-07-10T04:22:05.360Z,100403.00
2017-07-10T04:24:37.777Z,100407.96
2017-07-10T04:27:11.108Z,100400.17
2017-07-10T04:29:43.741Z,100407.17
2017-07-10T04:32:16.218Z,100410.33
2017-07-10T04:34:48.841Z,100404.50
2017-07-10T04:37:20.876Z,100395.02
2017-07-10T04:39:53.376Z,100398.73
2017-07-10T04:42:25.873Z,100399.14
2017-07-10T04:44:58.210Z,100386.33
2017-07-10T04:47:30.563Z,100383.69
2017-07-10T04:50:02.804Z,100389.73
2017-07-10T04:52:35.217Z,100396.89
2017-07-10T04:55:07.605Z,100391.89
2017-07-10T04:57:39.964Z,100388.04
2017-07-10T05:00:12.725Z,100383.52
2017-07-10T05:02:45.110Z,100388.53
2017-07-10T05:05:24.146Z,100381.11
2017-07-10T05:07:56.713Z,100385.37
2017-07-10T05:10:29.337Z,100384.00
2017-07-10T05:13:01.625Z,100392.63
2017-07-10T05:15:33.805Z,100385.46
2017-07-10T05:18:06.252Z,100377.99
2017-07-10T05:20:39.710Z,100379.80
2017-07-10T05:23:12.956Z,100377.07
2017-07-10T05:25:45.409Z,100385.59
2017-07-10T05:28:17.864Z,100385.25
2017-07-10T05:30:50.327Z,100387.21
2017-07-10T05:33:22.821Z,100389.94
2017-07-10T05:35:55.221Z,100384.57
2017-07-10T05:38:27.582Z,100380.78
2017-07-10T05:40:59.945Z,100380.88
2017-07-10T05:43:32.284Z,100373.08
2017-07-10T05:46:04.822Z,100376.64
2017-07-10T05:48:37.127Z,100370.30
2017-07-10T05:51:09.532Z,100366.97
2017-07-10T05:53:41.985Z,100369.91
2017-07-10T05:56:14.501Z,100363.89
2017-07-10T05:58:46.957Z,100365.02
2017-07-10T06:01:19.404Z,100357.40
2017-07-10T06:03:51.794Z,100358.54
2017-07-10T06:06:24.249Z,100357.36
2017-07-10T06:08:56.757Z,100358.61
2017-07-10T06:11:29.052Z,100358.66
2017-07-10T06:14:01.502Z,100363.02
2017-07-10T06:16:34.310Z,100355.80
2017-07-10T06:19:06.428Z,100350.11
2017-07-10T06:21:38.848Z,100342.69
2017-07-10T06:24:11.305Z,100339.73
2017-07-10T06:26:43.804Z,100344.64
2017-07-10T06:29:16.150Z,100336.92
2017-07-10T06:31:48.439Z,100337.16
2017-07-10T06:34:20.790Z,100331.91
2017-07-10T06:36:54.265Z,100323.66
2017-07-10T06:39:26.656Z,100319.05
2017-07-10T06:41:58.930Z,100317.86
2017-07-10T06:44:31.368Z,100317.28
2017-07-10T06:47:03.714Z,100320.12
2017-07-10T06:49:36.058Z,100312.09
2017-07-10T06:52:08.488Z,100310.63
2017-07-10T06:54:40.779Z,100308.56
2017-07-10T06:57:14.170Z,100302.72
2017-07-10T06:59:46.881Z,100306.01
2017-07-10T07:02:19.903Z,100300.67
2017-07-10T07:04:52.753Z,100306.60
2017-07-10T07:07:24.828Z,100305.30
2017-07-10T07:09:57.207Z,100299.52
2017-07-10T07:12:29.693Z,100295.98
2017-07-10T07:15:02.738Z,100292.78
2017-07-10T07:17:35.552Z,100293.48
2017-07-10T07:20:07.901Z,100300.12
2017-07-10T07:22:40.248Z,100309.00
2017-07-10T07:25:12.629Z,100310.23
2017-07-10T07:27:44.957Z,100319.15
2017-07-10T07:30:17.291Z,100306.71
2017-07-10T07:32:49.886Z,100336.27
2017-07-10T07:35:22.328Z,100344.68
2017-07-10T07:37:55.022Z,100361.89
2017-07-10T07:40:27.005Z,100366.11
2017-07-10T07:42:59.421Z,100377.27
2017-07-10T07:45:31.717Z,100377.94
2017-07-10T07:48:04.171Z,100378.86
2017-07-10T07:50:36.521Z,100374.19
2017-07-10T07:53:08.924Z,100372.53
2017-07-10T07:55:41.360Z,100370.16
2017-07-10T07:58:13.740Z,100372.11
2017-07-10T08:00:46.038Z,100377.83
2017-07-10T08:03:19.373Z,100376.41
2017-07-10T08:05:52.327Z,100380.70
2017-07-10T08:08:24.802Z,100368.94
2017-07-10T08:10:57.433Z,100359.35
2017-07-10T08:13:36.478Z,100360.78
2017-07-10T08:16:09.340Z,100353.45
2017-07-10T08:18:41.345Z,100346.76
2017-07-10T08:21:13.722Z,100348.23
2017-07-10T08:23:46.584Z,100334.82
2017-07-10T08:26:18.673Z,100318.91
2017-07-10T08:28:51.096Z,100311.24
2017-07-10T08:31:24.192Z,100310.61
2017-07-10T08:33:56.949Z,100313.73
2017-07-10T08:36:29.396Z,100324.33
2017-07-10T08:39:01.796Z,100317.70
2017-07-10T08:41:34.154Z,100325.45
2017-07-10T08:44:06.694Z,100328.25
2017-07-10T08:46:38.992Z,100334.11
2017-07-10T08:49:12.441Z,100336.28
2017-07-10T08:51:44.860Z,100334.91
2017-07-10T08:54:17.247Z,100338.37
2017-07-10T08:56:49.610Z,100337.09
2017-07-10T08:59:22.828Z,100337.77
2017-07-10T09:01:55.463Z,100339.20
2017-07-10T09:04:27.849Z,100328.56
2017-07-10T09:07:00.224Z,100321.27
2017-07-10T09:09:32.614Z,100327.04
2017-07-10T09:12:04.998Z,100331.89
2017-07-10T09:14:37.337Z,100332.23
2017-07-10T09:17:10.599Z,100333.34
2017-07-10T09:19:43.153Z,100334.27
2017-07-10T09:22:15.700Z,100328.59
2017-07-10T09:24:48.062Z,100330.62
2017-07-10T09:27:20.440Z,100335.16
2017-07-10T09:29:52.820Z,100339.69
2017-07-10T09:32:25.189Z,100336.64
2017-07-10T09:34:57.490Z,100345.44
2017-07-10T09:37:29.943Z,100348.33
2017-07-10T09:40:02.439Z,100344.98
2017-07-10T09:42:35.926Z,100342.72
2017-07-10T09:45:08.337Z,100344.89
2017-07-10T09:47:40.457Z,100346.26
2017-07-10T09:50:12.959Z,100347.38
2017-07-10T09:52:45.401Z,100342.91
2017-07-10T09:55:17.701Z,100342.91
2017-07-10T09:57:50.634Z,100348.20
2017-07-10T10:00:22.570Z,100344.53
2017-07-10T10:02:55.004Z,100338.87
2017-07-10T10:05:27.412Z,100338.78
2017-07-10T10:07:59.894Z,100334.81
2017-07-10T10:10:32.465Z,100332.94
2017-07-10T10:13:04.924Z,100326.41
2017-07-10T10:15:38.035Z,100337.34
2017-07-10T10:18:10.864Z,100334.90
2017-07-10T10:20:43.192Z,100337.03
2017-07-10T10:23:15.627Z,100336.78
2017-07-10T10:25:47.996Z,100333.16
2017-07-10T10:28:20.448Z,100338.16
2017-07-10T10:30:53.226Z,100338.77
2017-07-10T10:33:25.513Z,100342.92
2017-07-10T10:35:58.029Z,100341.37
2017-07-10T10:38:30.444Z,100337.47
2017-07-10T10:41:03.229Z,100337.70
2017-07-10T10:43:35.400Z,100337.25
2017-07-10T10:46:07.987Z,100333.69
2017-07-10T10:48:40.257Z,100342.19
2017-07-10T10:51:12.662Z,100344.77
2017-07-10T10:53:45.101Z,100344.70
2017-07-10T10:56:17.639Z,100340.11
2017-07-10T10:58:50.121Z,100336.73
2017-07-10T11:01:23.433Z,100334.44
2017-07-10T11:03:55.837Z,100332.69
2017-07-10T11:06:28.353Z,100327.98
2017-07-10T11:09:00.695Z,100327.98
2017-07-10T11:11:33.173Z,100327.53
2017-07-10T11:14:05.657Z,100322.88
2017-07-10T11:16:38.300Z,100316.25
2017-07-10T11:19:10.506Z,100314.03
2017-07-10T11:21:42.799Z,100305.06
2017-07-10T11:24:15.081Z,100305.73
2017-07-10T11:26:47.432Z,100301.95
2017-07-10T11:29:19.870Z,100305.95
2017-07-10T11:31:52.265Z,100304.44
2017-07-10T11:34:24.520Z,100303.31
2017-07-10T11:36:56.892Z,100299.30
2017-07-10T11:39:29.276Z,100303.39
2017-07-10T11:42:01.671Z,100298.90
2017-07-10T11:44:34.114Z,100290.90
2017-07-10T11:47:06.519Z,100282.75
2017-07-10T11:49:39.461Z,100291.65
2017-07-10T11:52:11.359Z,100293.39
2017-07-10T11:54:43.805Z,100302.62
2017-07-10T11:57:16.203Z,100323.48
2017-07-10T11:59:48.687Z,100324.68
2017-07-10T12:02:21.025Z,100324.28
2017-07-10T12:04:53.435Z,100320.11
2017-07-10T12:07:25.929Z,100315.23
2017-07-10T12:09:58.352Z,100319.78
2017-07-10T12:12:30.925Z,100319.36
2017-07-10T12:15:04.016Z,100316.11
2017-07-10T12:17:36.532Z,100316.39
2017-07-10T12:20:08.954Z,100323.91
2017-07-10T12:22:41.665Z,100318.52
2017-07-10T12:25:13.729Z,100318.67
2017-07-10T12:27:46.134Z,100311.66
2017-07-10T12:30:18.508Z,100304.17
2017-07-10T12:32:51.000Z,100302.01
2017-07-10T12:35:23.618Z,100309.61
2017-07-10T12:37:56.005Z,100307.25
2017-07-10T12:40:28.317Z,100300.15
2017-07-10T12:43:00.997Z,100293.50
2017-07-10T12:45:33.668Z,100292.22
2017-07-10T12:48:05.957Z,100292.62
2017-07-10T12:50:38.290Z,100288.98
2017-07-10T12:53:10.801Z,100287.47
2017-07-10T12:55:43.121Z,100287.06
2017-07-10T12:58:16.497Z,100278.77
2017-07-10T13:00:49.019Z,100278.84
2017-07-10T13:03:21.426Z,100279.88
2017-07-10T13:05:53.733Z,100278.56
2017-07-10T13:08:26.193Z,100279.84
2017-07-10T13:10:58.598Z,100285.10
2017-07-10T13:13:31.014Z,100292.59
2017-07-10T13:16:03.371Z,100293.89
2017-07-10T13:18:35.826Z,100301.08
2017-07-10T13:21:08.229Z,100303.20
2017-07-10T13:23:40.722Z,100311.23
2017-07-10T13:26:13.173Z,100312.53
2017-07-10T13:28:45.867Z,100308.95
2017-07-10T13:31:18.060Z,100321.20
2017-07-10T13:33:50.565Z,100321.21
2017-07-10T13:36:22.874Z,100325.10
2017-07-10T13:38:55.448Z,100323.94
2017-07-10T13:41:27.709Z,100331.86
2017-07-10T13:44:00.223Z,100317.11
2017-07-10T13:46:32.576Z,100314.74
2017-07-10T13:49:05.044Z,100310.38
2017-07-10T13:51:37.493Z,100313.00
2017-07-10T13:54:09.924Z,100312.88
2017-07-10T13:56:42.163Z,100306.05
2017-07-10T13:59:14.670Z,100304.11
2017-07-10T14:01:47.268Z,100300.16
2017-07-10T14:04:19.606Z,100300.56
2017-07-10T14:06:52.100Z,100296.69
2017-07-10T14:09:24.746Z,100306.45
2017-07-10T14:11:56.746Z,100298.69
2017-07-10T14:14:29.309Z,100295.41
2017-07-10T14:17:01.663Z,100293.97
2017-07-10T14:19:34.052Z,100293.75
2017-07-10T14:22:06.440Z,100291.37
2017-07-10T14:24:38.892Z,100287.97
2017-07-10T14:27:21.521Z,100284.39
2017-07-10T14:29:54.932Z,100285.55
2017-07-10T14:32:27.161Z,100288.05
2017-07-10T14:34:59.479Z,100289.03
2017-07-10T14:37:31.804Z,100280.33
2017-07-10T14:40:04.309Z,100279.64
2017-07-10T14:42:36.625Z,100278.88
2017-07-10T14:45:09.097Z,100286.56
2017-07-10T14:47:42.414Z,100281.96
2017-07-10T14:50:14.921Z,100277.23
2017-07-10T14:52:47.492Z,100284.50
2017-07-10T14:55:19.769Z,100278.11
2017-07-10T14:57:52.253Z,100288.42
2017-07-10T15:00:24.812Z,100286.20
2017-07-10T15:02:57.076Z,100286.81
2017-07-10T15:05:30.234Z,100285.19
2017-07-10T15:08:02.707Z,100287.71
2017-07-10T15:10:35.306Z,100282.70
2017-07-10T15:13:07.782Z,100281.37
2017-07-10T15:15:39.980Z,100271.71
2017-07-10T15:18:12.345Z,100273.25
2017-07-10T15:20:44.714Z,100270.40
2017-07-10T15:23:17.363Z,100271.15
2017-07-10T15:25:49.643Z,100267.59
2017-07-10T15:28:22.123Z,100261.00
2017-07-10T15:30:55.626Z,100251.72
2017-07-10T15:33:27.969Z,100253.59
2017-07-10T15:36:00.402Z,100253.52
2017-07-10T15:38:33.468Z,100263.46
2017-07-10T15:41:06.343Z,100266.03
2017-07-10T15:43:39.105Z,100265.13
2017-07-10T15:46:11.044Z,100262.80
2017-07-10T15:48:43.658Z,100268.20
2017-07-10T15:51:15.812Z,100277.95
2017-07-10T15:53:48.233Z,100274.09
2017-07-10T15:56:20.788Z,100269.86
2017-07-10T15:58:52.992Z,100273.75
2017-07-10T16:01:25.390Z,100277.98
2017-07-10T16:03:57.840Z,100276.03
2017-07-10T16:06:30.240Z,100274.47
2017-07-10T16:09:02.556Z,100274.58
2017-07-10T16:11:34.954Z,100273.80
2017-07-10T16:14:07.284Z,100273.09
2017-07-10T16:16:39.602Z,100269.24
2017-07-10T16:19:12.059Z,100264.73
2017-07-10T16:21:44.436Z,100264.03
2017-07-10T16:24:16.817Z,100268.20
2017-07-10T16:26:49.872Z,100284.19
2017-07-10T16:29:22.569Z,100281.80
2017-07-10T16:31:56.027Z,100288.11
2017-07-10T16:34:28.237Z,100291.77
2017-07-10T16:37:01.025Z,100287.75
2017-07-10T16:39:32.994Z,100287.83
2017-07-10T16:42:05.325Z,100288.03
2017-07-10T16:44:37.744Z,100289.46
2017-07-10T16:47:10.296Z,100285.89
2017-07-10T16:49:42.497Z,100294.26
2017-07-10T16:52:14.976Z,100295.94
2017-07-10T16:54:47.425Z,100296.11
2017-07-10T16:57:19.809Z,100297.41
2017-07-10T16:59:52.268Z,100298.70
2017-07-10T17:02:24.813Z,100301.34
2017-07-10T17:04:57.521Z,100301.31
2017-07-10T17:07:29.547Z,100299.14
2017-07-10T17:10:01.790Z,100297.68
2017-07-10T17:12:34.269Z,100289.84
2017-07-10T17:15:06.655Z,100292.60
2017-07-10T17:17:39.029Z,100301.70
2017-07-10T17:20:11.393Z,100303.78
2017-07-10T17:22:43.837Z,100291.10
2017-07-10T17:25:16.217Z,100292.25
2017-07-10T17:27:48.633Z,100293.78
2017-07-10T17:30:21.060Z,100284.28
2017-07-10T17:32:54.445Z,100289.57
2017-07-10T17:35:26.977Z,100296.44
2017-07-10T17:37:59.415Z,100282.80
2017-07-10T17:40:32.774Z,100276.16
2017-07-10T17:43:05.175Z,100275.73
2017-07-10T17:45:37.632Z,100277.42
2017-07-10T17:48:10.489Z,100272.29
2017-07-10T17:50:42.391Z,100281.47
2017-07-10T17:53:15.696Z,100286.58
2017-07-10T17:55:48.152Z,100296.45
2017-07-10T17:58:21.522Z,100287.31
2017-07-10T18:00:54.128Z,100280.95
2017-07-10T18:03:26.849Z,100271.13
2017-07-10T18:05:58.945Z,100272.14
2017-07-10T18:08:31.307Z,100269.80
2017-07-10T18:11:03.750Z,100265.80
2017-07-10T18:13:36.180Z,100272.11
2017-07-10T18:16:08.552Z,100273.20
2017-07-10T18:18:41.021Z,100266.91
2017-07-10T18:21:13.439Z,100278.79
2017-07-10T18:23:45.820Z,100285.67
2017-07-10T18:26:18.126Z,100284.97
2017-07-10T18:28:50.517Z,100275.15
2017-07-10T18:31:25.050Z,100276.51
2017-07-10T18:33:57.846Z,100272.80
2017-07-10T18:36:30.286Z,100283.58
2017-07-10T18:39:02.611Z,100285.29
2017-07-10T18:41:34.610Z,100297.31
2017-07-10T18:44:06.921Z,100294.34
2017-07-10T18:46:39.254Z,100291.72
2017-07-10T18:49:11.557Z,100284.98
2017-07-10T18:51:44.017Z,100287.05
2017-07-10T18:54:16.594Z,100291.67
2017-07-10T18:56:48.801Z,100297.91
2017-07-10T18:59:21.226Z,100303.08
2017-07-10T19:01:54.353Z,100305.00
2017-07-10T19:04:28.833Z,100305.66
2017-07-10T19:07:01.500Z,100305.75
2017-07-10T19:09:33.902Z,100311.16
2017-07-10T19:12:06.354Z,100312.74
2017-07-10T19:14:38.804Z,100325.67
2017-07-10T19:17:11.373Z,100334.56
2017-07-10T19:19:43.912Z,100330.03
2017-07-10T19:22:15.928Z,100325.03
2017-07-10T19:24:48.342Z,100322.44
2017-07-10T19:27:20.932Z,100323.09
2017-07-10T19:29:52.905Z,100335.56
2017-07-10T19:32:25.313Z,100345.42
2017-07-10T19:34:58.861Z,100346.63
2017-07-10T19:37:31.106Z,100341.24
2017-07-10T19:40:03.583Z,100336.62
2017-07-10T19:42:37.085Z,100331.54
2017-07-10T19:45:09.377Z,100331.44
2017-07-10T19:47:41.734Z,100342.61
2017-07-10T19:50:14.118Z,100354.47
2017-07-10T19:52:46.657Z,100364.82
2017-07-10T19:55:18.784Z,100378.73
2017-07-10T19:57:51.219Z,100376.74
2017-07-10T20:00:23.821Z,100389.23
2017-07-10T20:02:56.027Z,100391.44
2017-07-10T20:05:28.437Z,100400.59
2017-07-10T20:08:00.808Z,100397.81
2017-07-10T20:10:33.190Z,100404.15
2017-07-10T20:13:05.597Z,100396.11
2017-07-10T20:15:38.261Z,100396.89
2017-07-10T20:18:10.407Z,100401.87
2017-07-10T20:20:42.915Z,100397.00
2017-07-10T20:23:15.657Z,100400.41
2017-07-10T20:25:47.815Z,100400.65
2017-07-10T20:28:20.030Z,100398.66
2017-07-10T20:30:52.457Z,100401.30
2017-07-10T20:33:24.739Z,100400.32
2017-07-10T20:35:57.244Z,100404.31
2017-07-10T20:38:29.497Z,100405.09
2017-07-10T20:41:01.883Z,100405.15
2017-07-10T20:43:34.358Z,100410.80
2017-07-10T20:46:07.548Z,100415.09
2017-07-10T20:48:40.187Z,100422.73
2017-07-10T20:51:12.812Z,100423.48
2017-07-10T20:53:45.107Z,100423.77
2017-07-10T20:56:17.731Z,100430.05
2017-07-10T20:58:49.780Z,100430.16
2017-07-10T21:01:23.257Z,100423.72
2017-07-10T21:03:55.621Z,100419.97
2017-07-10T21:06:27.829Z,100420.16
2017-07-10T21:09:00.223Z,100418.25
2017-07-10T21:11:32.836Z,100408.89
2017-07-10T21:14:05.325Z,100414.06
2017-07-10T21:16:38.581Z,100412.55
2017-07-10T21:19:11.107Z,100408.55
2017-07-10T21:21:43.449Z,100402.17
2017-07-10T21:24:15.841Z,100397.05
2017-07-10T21:26:48.280Z,100390.77
2017-07-10T21:29:20.627Z,100394.02
2017-07-10T21:31:53.200Z,100392.41
2017-07-10T21:34:25.690Z,100385.64
2017-07-10T21:36:58.080Z,100391.01
2017-07-10T21:39:30.542Z,100388.08
2017-07-10T21:42:03.314Z,100379.22
2017-07-10T21:44:35.408Z,100372.34
2017-07-10T21:47:08.686Z,100370.19
2017-07-10T21:49:41.270Z,100364.52
2017-07-10T21:52:13.646Z,100369.80
2017-07-10T21:54:45.969Z,100368.15
2017-07-10T21:57:18.309Z,100377.80
2017-07-10T21:59:51.660Z,100381.93
2017-07-10T22:02:24.073Z,100383.88
2017-07-10T22:04:56.377Z,100388.23
2017-07-10T22:07:28.816Z,100393.28
2017-07-10T22:10:01.227Z,100399.82
2017-07-10T22:12:33.528Z,100405.67
2017-07-10T22:15:05.822Z,100411.89
2017-07-10T22:17:38.201Z,100412.81
2017-07-10T22:20:10.569Z,100402.68
2017-07-10T22:22:43.057Z,100401.03
2017-07-10T22:25:15.505Z,100401.47
2017-07-10T22:27:47.964Z,100406.48
2017-07-10T22:30:20.365Z,100411.95
2017-07-10T22:32:52.768Z,100416.41
2017-07-10T22:35:25.163Z,100406.42
2017-07-10T22:37:58.325Z,100400.94
2017-07-10T22:40:31.082Z,100404.69
2017-07-10T22:43:03.263Z,100405.27
2017-07-10T22:45:35.681Z,100408.93
2017-07-10T22:48:08.114Z,100409.23
2017-07-10T22:50:40.558Z,100412.45
2017-07-10T22:53:12.976Z,100422.44
2017-07-10T22:55:45.421Z,100420.83
2017-07-10T22:58:17.897Z,100424.64
2017-07-10T23:00:50.601Z,100426.49
2017-07-10T23:03:22.624Z,100429.22
2017-07-10T23:05:55.077Z,100433.50
2017-07-10T23:08:27.413Z,100429.41
2017-07-10T23:10:59.866Z,100429.91
2017-07-10T23:13:32.858Z,100425.28
2017-07-10T23:16:05.564Z,100429.09
2017-07-10T23:18:37.924Z,100421.58
2017-07-10T23:21:10.274Z,100421.67
2017-07-10T23:23:42.825Z,100417.92
2017-07-10T23:26:16.032Z,100418.41
2017-07-10T23:28:49.459Z,100414.91
2017-07-10T23:31:21.955Z,100418.20
2017-07-10T23:33:54.390Z,100418.95
2017-07-10T23:36:26.789Z,100409.83
2017-07-10T23:38:59.289Z,100401.64
2017-07-10T23:41:31.642Z,100394.81
2017-07-10T23:44:04.040Z,100397.88
2017-07-10T23:46:36.474Z,100401.68
2017-07-10T23:49:09.077Z,100408.84
2017-07-10T23:51:41.484Z,100411.56
2017-07-10T23:54:14.046Z,100405.62
2017-07-10T23:56:46.788Z,100396.59
2017-07-10T23:59:18.999Z,100397.72
